N2NET Weather Reports


time (UTC)temp
C
wind
direction
speed
KPH
gust
KPH
rain 1hr
cm
rain 24hr
cm
rain mn
cm
humidity
%
barometer
mb
20200531000112 18 313 16.1 37.0 0.00 0.18 0.18 62 1011.9
20200530234657 19 323 4.8 8.0 0.00 0.18 0.18 60 1011.3
20200530233031 20 270 0.0 11.3 0.00 0.18 0.18 57 1011.0
20200530231528 20 305 1.6 6.4 0.00 0.18 0.18 54 1010.9
20200530230019 21 344 4.8 14.5 0.00 0.18 0.18 51 1010.8
20200530224516 21 342 1.6 9.7 0.00 0.18 0.18 50 1010.7
20200530223027 21 301 0.0 19.3 0.00 0.18 0.18 49 1010.6
20200530221504 21 280 4.8 17.7 0.00 0.18 0.18 49 1010.7
20200530220248 21 301 4.8 12.9 0.00 0.18 0.18 47 1010.6
20200530214755 21 309 4.8 11.3 0.00 0.18 0.18 47 1010.5
20200530213121 22 296 3.2 12.9 0.00 0.18 0.18 46 1010.5
20200530211622 22 313 6.4 16.1 0.00 0.18 0.18 42 1010.5
20200530210107 22 271 6.4 19.3 0.00 0.18 0.18 42 1010.5
20200530204732 23 314 4.8 14.5 0.00 0.18 0.18 41 1010.5
20200530203142 23 162 6.4 19.3 0.00 0.18 0.18 41 1010.5
20200530201627 23 307 4.8 16.1 0.00 0.18 0.18 41 1010.5
20200530200052 23 284 6.4 19.3 0.00 0.18 0.18 44 1010.6
20200530194523 23 295 3.2 20.9 0.00 0.18 0.18 41 1010.8
20200530193017 23 316 8.0 16.1 0.00 0.18 0.18 44 1010.9
20200530191548 23 267 3.2 14.5 0.00 0.18 0.18 44 1010.9
20200530190010 22 326 6.4 17.7 0.00 0.18 0.18 43 1010.9
20200530184510 22 312 9.7 20.9 0.00 0.18 0.18 43 1011.2
20200530183213 22 242 9.7 24.1 0.00 0.18 0.18 43 1011.2
20200530181936 22 298 12.9 22.5 0.00 0.18 0.18 44 1011.3
20200530180146 22 278 6.4 20.9 0.00 0.18 0.18 46 1011.2
20200530174605 22 294 3.2 14.5 0.00 0.18 0.18 48 1011.2
20200530173132 22 221 3.2 12.9 0.00 0.18 0.18 50 1011.2
20200530171657 22 295 4.8 14.5 0.00 0.18 0.18 47 1011.1
20200530170044 21 307 8.0 14.5 0.00 0.18 0.18 50 1011.3
20200530164548 21 351 4.8 20.9 0.00 0.18 0.18 50 1011.4
20200530163104 21 229 6.4 17.7 0.00 0.18 0.18 52 1011.7
20200530161524 20 267 3.2 17.7 0.00 0.18 0.18 55 1011.9
20200530160014 20 324 0.0 16.1 0.00 0.18 0.18 59 1011.9
20200530154518 20 337 4.8 14.5 0.00 0.18 0.18 55 1012.2
20200530153011 20 344 8.0 22.5 0.00 0.18 0.18 55 1012.5
20200530151625 19 309 6.4 17.7 0.00 0.18 0.18 58 1012.3
20200530150214 18 302 4.8 19.3 0.00 0.18 0.18 61 1012.7
20200530144731 18 320 4.8 19.3 0.00 0.18 0.18 61 1012.8
20200530143053 18 285 3.2 19.3 0.00 0.18 0.18 62 1012.8
20200530141605 18 23 8.0 19.3 0.00 0.18 0.18 63 1012.8
20200530140100 17 315 9.7 24.1 0.00 0.18 0.18 63 1012.8
20200530134628 17 340 11.3 27.4 0.00 0.18 0.18 64 1012.9
20200530133059 17 344 8.0 24.1 0.00 0.18 0.18 65 1012.6
20200530131548 17 248 4.8 14.5 0.00 0.18 0.18 67 1012.7
20200530130040 17 276 4.8 22.5 0.00 0.18 0.18 67 1012.6
20200530124523 16 307 12.9 25.7 0.00 0.18 0.18 67 1012.4
20200530123024 16 288 11.3 20.9 0.00 0.18 0.18 66 1012.6
20200530121510 16 309 8.0 25.7 0.00 0.18 0.18 68 1012.6
20200530120010 17 315 16.1 25.7 0.00 0.30 0.18 68 1012.1
20200530114612 16 9 3.2 17.7 0.00 0.30 0.18 69 1012.2
20200530113055 16 321 4.8 17.7 0.00 0.30 0.18 69 1011.7
20200530111639 16 297 4.8 24.1 0.00 0.30 0.18 68 1011.9
20200530110226 16 226 1.6 12.9 0.00 0.30 0.18 66 1011.9
20200530104608 16 289 4.8 8.0 0.00 0.30 0.18 63 1011.7
20200530103131 16 301 6.4 16.1 0.00 0.30 0.18 64 1011.8
20200530101609 16 314 4.8 19.3 0.00 0.30 0.18 59 1011.6
20200530100043 16 337 8.0 22.5 0.00 0.30 0.18 50 1011.4
20200530094530 17 25 6.4 25.7 0.00 0.30 0.18 37 1011.0
20200530093025 17 307 8.0 25.7 0.00 0.30 0.18 22 1011.0
20200530091545 17 284 1.6 11.3 0.00 0.30 0.18 1 1010.5
20200530090016 17 285 1.6 6.4 0.00 0.30 0.18 1 1010.4
20200530084504 17 312 1.6 8.0 0.00 0.30 0.18 1 1010.3
20200530083222 17 149 0.0 6.4 0.00 0.30 0.18 1 1010.3
20200530081712 16 276 3.2 11.3 0.00 0.30 0.18 1 1010.0
20200530080115 17 277 0.0 6.4 0.00 0.30 0.18 1 1010.2
20200530074639 17 284 8.0 16.1 0.00 0.33 0.18 1 1010.2
20200530073106 16 288 0.0 6.4 0.00 0.33 0.18 1 1010.4
20200530071605 15 295 0.0 3.2 0.03 0.33 0.18 1 1010.2
20200530070106 15 254 0.0 9.7 0.03 0.33 0.18 1 1010.1